createdAt,value
2023-04-15T00:01:00.111Z,99804.63
2023-04-15T00:03:30.477Z,99808.27
2023-04-15T00:06:08.691Z,99816.70
2023-04-15T00:08:41.785Z,99822.28
2023-04-15T00:17:17.495Z,99800.29
2023-04-15T00:19:48.327Z,99799.92
2023-04-15T00:22:28.274Z,99794.34
2023-04-15T00:24:58.561Z,99791.33
2023-04-15T00:27:28.566Z,99800.56
2023-04-15T00:30:00.934Z,99801.27
2023-04-15T00:32:35.290Z,99793.91
2023-04-15T00:35:04.821Z,99793.68
2023-04-15T00:37:36.734Z,99798.95
2023-04-15T00:40:09.493Z,99799.89
2023-04-15T00:42:40.445Z,99796.06
2023-04-15T00:45:10.734Z,99804.89
2023-04-15T00:47:39.674Z,99801.39
2023-04-15T00:50:09.637Z,99795.87
2023-04-15T00:52:39.100Z,99792.63
2023-04-15T00:55:09.056Z,99794.36
2023-04-15T00:57:57.718Z,99791.95
2023-04-15T01:00:26.913Z,99795.70
2023-04-15T01:02:57.034Z,99799.63
2023-04-15T01:05:25.785Z,99812.87
2023-04-15T01:07:55.325Z,99810.69
2023-04-15T01:10:24.118Z,99802.64
2023-04-15T01:12:52.579Z,99801.19
2023-04-15T01:15:21.548Z,99802.16
2023-04-15T01:17:49.978Z,99802.05
2023-04-15T01:20:18.461Z,99804.80
2023-04-15T01:22:48.378Z,99804.71
2023-04-15T01:25:20.417Z,99809.48
2023-04-15T01:27:49.593Z,99804.38
2023-04-15T01:30:17.830Z,99803.77
2023-04-15T01:32:46.918Z,99801.13
2023-04-15T01:35:15.282Z,99799.69
2023-04-15T01:37:43.779Z,99802.51
2023-04-15T01:40:12.254Z,99805.05
2023-04-15T01:42:41.349Z,99815.95
2023-04-15T01:45:11.369Z,99822.95
2023-04-15T01:47:39.870Z,99824.69
2023-04-15T01:50:08.669Z,99822.25
2023-04-15T01:52:38.959Z,99824.98
2023-04-15T01:55:08.734Z,99825.85
2023-04-15T01:57:38.514Z,99829.00
2023-04-15T02:00:11.672Z,99826.89
2023-04-15T02:02:43.914Z,99837.71
2023-04-15T02:05:12.348Z,99839.90
2023-04-15T02:07:40.632Z,99838.65
2023-04-15T02:10:10.541Z,99844.67
2023-04-15T02:12:39.191Z,99842.09
2023-04-15T02:15:09.101Z,99850.02
2023-04-15T02:17:38.964Z,99844.91
2023-04-15T02:20:10.713Z,99847.16
2023-04-15T02:22:39.188Z,99851.14
2023-04-15T02:25:09.396Z,99855.45
2023-04-15T02:27:38.507Z,99854.73
2023-04-15T02:30:07.524Z,99859.95
2023-04-15T02:32:38.084Z,99865.65
2023-04-15T02:35:09.140Z,99870.04
2023-04-15T02:37:43.609Z,99869.42
2023-04-15T02:40:12.519Z,99869.01
2023-04-15T02:42:41.750Z,99870.88
2023-04-15T02:45:13.219Z,99871.70
2023-04-15T02:47:41.989Z,99871.02
2023-04-15T02:50:13.031Z,99871.18
2023-04-15T02:52:42.685Z,99874.95
2023-04-15T02:55:11.262Z,99886.95
2023-04-15T02:57:41.270Z,99883.36
2023-04-15T03:00:12.132Z,99883.54
2023-04-15T03:02:46.313Z,99888.93
2023-04-15T03:05:16.474Z,99889.26
2023-04-15T03:07:52.589Z,99888.85
2023-04-15T03:10:21.616Z,99891.92
2023-04-15T03:12:49.754Z,99892.89
2023-04-15T03:15:27.341Z,99893.94
2023-04-15T03:17:55.823Z,99899.79
2023-04-15T03:20:24.315Z,99888.34
2023-04-15T03:22:55.007Z,99888.31
2023-04-15T03:25:23.558Z,99887.67
2023-04-15T03:27:52.268Z,99889.95
2023-04-15T03:30:33.227Z,99886.96
2023-04-15T03:33:03.261Z,99884.48
2023-04-15T03:35:31.777Z,99882.84
2023-04-15T03:38:01.697Z,99883.91
2023-04-15T03:40:30.539Z,99882.70
2023-04-15T03:42:58.681Z,99886.72
2023-04-15T03:45:26.709Z,99881.92
2023-04-15T03:47:55.705Z,99888.66
2023-04-15T03:50:29.145Z,99892.48
2023-04-15T03:52:57.333Z,99890.58
2023-04-15T03:55:25.717Z,99888.94
2023-04-15T03:57:53.830Z,99892.99
2023-04-15T04:00:22.305Z,99893.23
2023-04-15T04:02:50.742Z,99881.92
2023-04-15T04:05:19.364Z,99887.23
2023-04-15T04:07:48.069Z,99881.95
2023-04-15T04:10:16.348Z,99879.95
2023-04-15T04:12:46.029Z,99881.67
2023-04-15T04:15:14.986Z,99887.39
2023-04-15T04:17:44.337Z,99895.75
2023-04-15T04:20:12.798Z,99895.98
2023-04-15T04:22:46.699Z,99897.52
